Time;durP1;ratioP1;P1;durP2;ratioP2;P2;SDS_P1;SDS_P2;PMS_P1;PMS_P2;Temp;Humidity;BMP_temperature;BMP_pressure;BME280_temperature;BME280_humidity;BME280_pressure;Samples;Min_cycle;Max_cycle;Signal;HPM_P1;HPM_P2
2023/04/15 00:01:54;;;;;;;33.72;18.40;;;;;;;9.24;69.09;97173.44;5058068;28;20473;-71
2023/04/15 00:04:20;;;;;;;31.90;18.90;;;;;;;9.16;69.94;97176.16;5060623;28;20067;-71
2023/04/15 00:06:52;;;;;;;32.42;18.10;;;;;;;9.09;69.74;97180.16;5066569;28;20074;-71
2023/04/15 00:09:18;;;;;;;28.40;15.50;;;;;;;9.04;70.28;97174.03;5068952;28;20037;-71
2023/04/15 00:11:44;;;;;;;25.55;15.32;;;;;;;8.98;70.01;97183.50;5069352;28;20036;-71
2023/04/15 00:14:10;;;;;;;23.92;13.13;;;;;;;8.94;70.14;97180.63;5062932;28;20059;-71
2023/04/15 00:16:36;;;;;;;23.67;13.15;;;;;;;8.90;70.75;97172.22;5067848;28;20421;-71
2023/04/15 00:19:01;;;;;;;24.75;13.38;;;;;;;8.89;70.20;97178.81;5065614;28;20025;-71
2023/04/15 00:21:27;;;;;;;24.80;13.60;;;;;;;8.88;69.81;97184.63;5068328;28;20032;-71
2023/04/15 00:23:53;;;;;;;22.88;13.07;;;;;;;8.84;70.48;97189.91;5064999;28;20499;-70
2023/04/15 00:26:19;;;;;;;18.73;10.75;;;;;;;8.81;70.36;97187.78;5066080;28;20025;-70
2023/04/15 00:28:46;;;;;;;17.52;9.93;;;;;;;8.78;70.13;97196.63;5064678;28;20093;-70
2023/04/15 00:31:11;;;;;;;17.30;9.55;;;;;;;8.75;70.67;97192.59;5067938;28;20059;-70
2023/04/15 00:33:37;;;;;;;14.27;7.88;;;;;;;8.72;70.01;97195.97;5068620;28;20021;-71
2023/04/15 00:36:03;;;;;;;10.27;6.05;;;;;;;8.68;69.93;97196.91;5067086;28;20028;-71
2023/04/15 00:38:28;;;;;;;8.15;4.75;;;;;;;8.66;69.88;97193.69;5063457;28;20529;-70
2023/04/15 00:40:55;;;;;;;8.88;4.55;;;;;;;8.64;69.98;97196.72;5052432;28;20036;-71
2023/04/15 00:43:20;;;;;;;7.95;4.22;;;;;;;8.64;69.91;97202.19;5064457;28;20442;-71
2023/04/15 00:45:46;;;;;;;8.15;4.47;;;;;;;8.64;69.01;97203.00;5091035;28;20040;-71
2023/04/15 00:48:11;;;;;;;6.75;4.40;;;;;;;8.64;69.97;97211.22;5091339;28;20384;-71
2023/04/15 00:50:37;;;;;;;8.70;5.50;;;;;;;8.63;69.40;97212.34;5090730;28;20020;-71
2023/04/15 00:53:02;;;;;;;10.23;5.82;;;;;;;8.63;69.95;97220.53;5091137;28;20172;-71
2023/04/15 00:55:28;;;;;;;6.40;3.53;;;;;;;8.61;69.14;97211.84;5091119;28;20162;-71
2023/04/15 00:57:53;;;;;;;6.22;3.58;;;;;;;8.60;69.25;97214.88;5086866;28;20035;-70
2023/04/15 01:00:20;;;;;;;6.55;3.88;;;;;;;8.59;68.78;97219.53;5090129;28;20085;-70
2023/04/15 01:02:45;;;;;;;6.63;3.55;;;;;;;8.58;68.88;97230.78;5091143;28;20036;-71
2023/04/15 01:05:10;;;;;;;6.18;3.97;;;;;;;8.56;69.55;97236.56;5090744;28;20035;-70
2023/04/15 01:07:36;;;;;;;5.25;3.78;;;;;;;8.56;69.15;97239.31;5090574;28;20380;-71
2023/04/15 01:10:05;;;;;;;8.75;5.03;;;;;;;8.59;69.06;97233.22;5090629;28;20672;-71
2023/04/15 01:12:32;;;;;;;6.70;4.00;;;;;;;8.58;68.40;97226.13;5090951;28;20458;-71
2023/04/15 01:14:59;;;;;;;4.82;3.13;;;;;;;8.54;68.96;97225.13;5090402;28;20027;-71
2023/04/15 01:17:24;;;;;;;4.05;2.47;;;;;;;8.51;69.14;97231.22;5090137;28;20063;-71
2023/04/15 01:19:51;;;;;;;4.63;2.60;;;;;;;8.51;68.73;97222.25;5090048;28;20113;-71
2023/04/15 01:22:16;;;;;;;5.00;3.30;;;;;;;8.52;68.96;97218.38;5090424;28;20024;-71
2023/04/15 01:24:55;;;;;;;4.65;2.67;;;;;;;8.51;68.46;97220.28;5090517;28;20480;-71
2023/04/15 01:27:21;;;;;;;4.38;3.00;;;;;;;8.52;68.51;97215.66;5090666;28;20357;-71
2023/04/15 01:29:47;;;;;;;5.60;3.53;;;;;;;8.51;68.08;97220.28;5090089;28;20081;-70
2023/04/15 01:32:12;;;;;;;5.72;3.30;;;;;;;8.49;68.34;97228.81;5090147;28;20036;-71
2023/04/15 01:34:37;;;;;;;7.25;4.35;;;;;;;8.44;68.68;97230.84;5090515;28;20460;-71
2023/04/15 01:37:03;;;;;;;6.20;4.00;;;;;;;8.39;68.49;97231.78;5090550;28;20043;-71
2023/04/15 01:39:28;;;;;;;6.57;4.38;;;;;;;8.34;68.14;97234.63;5090597;28;20456;-71
2023/04/15 01:41:53;;;;;;;7.65;5.28;;;;;;;8.31;68.11;97238.81;5090467;28;20024;-71
2023/04/15 01:44:19;;;;;;;7.90;5.32;;;;;;;8.27;68.41;97242.47;5090339;28;20055;-71
2023/04/15 01:46:44;;;;;;;10.85;6.40;;;;;;;8.24;68.23;97243.06;5089875;28;20028;-71
2023/04/15 01:49:09;;;;;;;8.27;6.15;;;;;;;8.19;68.41;97230.38;5090326;28;20433;-70
2023/04/15 01:51:35;;;;;;;6.72;5.10;;;;;;;8.15;68.33;97232.88;5090295;28;20067;-70
2023/04/15 01:54:00;;;;;;;11.15;6.03;;;;;;;8.13;68.05;97237.88;5090414;28;20035;-72
2023/04/15 01:56:26;;;;;;;10.93;7.25;;;;;;;8.10;68.60;97248.59;5090207;28;20026;-71
2023/04/15 01:58:51;;;;;;;10.45;7.32;;;;;;;8.07;68.31;97247.31;5090132;28;20050;-71
2023/04/15 02:01:18;;;;;;;12.75;7.63;;;;;;;8.05;68.71;97249.53;5089198;28;20043;-71
2023/04/15 02:03:44;;;;;;;11.80;6.90;;;;;;;7.99;67.81;97250.78;5090296;28;20034;-72
2023/04/15 02:06:10;;;;;;;9.85;6.63;;;;;;;7.96;68.29;97257.66;5088051;28;20071;-71
2023/04/15 02:08:35;;;;;;;9.15;5.32;;;;;;;7.96;68.17;97260.38;5090936;28;20056;-71
2023/04/15 02:11:01;;;;;;;11.43;8.40;;;;;;;7.93;68.28;97269.22;5090533;28;20016;-72
2023/04/15 02:13:26;;;;;;;12.48;8.60;;;;;;;7.89;68.36;97265.47;5090741;28;20035;-71
2023/04/15 02:15:53;;;;;;;10.85;7.00;;;;;;;7.87;68.25;97271.22;5090708;28;20073;-72
2023/04/15 02:18:18;;;;;;;11.77;6.20;;;;;;;7.85;68.75;97278.13;5090518;28;20073;-71
2023/04/15 02:20:44;;;;;;;9.02;4.70;;;;;;;7.83;68.27;97275.69;5090540;28;20024;-72
2023/04/15 02:23:10;;;;;;;13.93;7.57;;;;;;;7.80;68.50;97272.78;5090797;28;20066;-72
2023/04/15 02:25:36;;;;;;;12.43;7.07;;;;;;;7.78;68.98;97275.78;5090688;28;20414;-72
2023/04/15 02:28:01;;;;;;;10.35;6.15;;;;;;;7.76;68.96;97283.47;5088037;28;20084;-72
2023/04/15 02:30:26;;;;;;;12.02;6.80;;;;;;;7.73;68.31;97284.91;5091135;28;20032;-72
2023/04/15 02:32:52;;;;;;;10.40;6.93;;;;;;;7.73;68.58;97290.38;5094448;28;20060;-71
2023/04/15 02:35:20;;;;;;;11.88;6.45;;;;;;;7.72;69.17;97288.75;5094114;28;20035;-72
2023/04/15 02:37:45;;;;;;;10.02;5.78;;;;;;;7.75;68.89;97293.59;5094526;28;20028;-72
2023/04/15 02:40:12;;;;;;;11.65;6.25;;;;;;;7.77;68.86;97292.50;5093925;28;20366;-72
2023/04/15 02:42:40;;;;;;;11.80;7.05;;;;;;;7.77;68.68;97295.22;5094704;28;20532;-72
2023/04/15 02:45:06;;;;;;;13.93;7.47;;;;;;;7.79;68.85;97301.97;5060371;28;20401;-72
2023/04/15 02:47:33;;;;;;;14.63;8.07;;;;;;;7.78;68.79;97303.09;5073935;28;20103;-72
2023/04/15 02:49:59;;;;;;;12.90;7.95;;;;;;;7.71;69.22;97303.50;5074037;28;20495;-71
2023/04/15 02:52:25;;;;;;;13.75;7.80;;;;;;;7.64;69.35;97297.66;5058926;28;20108;-71
2023/04/15 02:54:50;;;;;;;13.60;7.40;;;;;;;7.59;69.44;97306.78;5056074;28;20115;-71
2023/04/15 02:57:16;;;;;;;13.00;7.45;;;;;;;7.55;69.43;97300.31;5060191;28;20446;-71
2023/04/15 02:59:41;;;;;;;9.20;6.03;;;;;;;7.52;69.26;97313.75;5073925;28;20445;-71
2023/04/15 03:02:07;;;;;;;12.55;5.63;;;;;;;7.48;69.31;97310.81;5073533;28;20486;-70
2023/04/15 03:04:32;;;;;;;9.57;5.78;;;;;;;7.42;69.16;97321.03;5070079;28;20032;-71
2023/04/15 03:06:58;;;;;;;7.80;4.57;;;;;;;7.39;69.15;97312.63;5065858;28;20374;-71
2023/04/15 03:09:23;;;;;;;6.93;3.72;;;;;;;7.33;69.37;97322.06;5073793;28;20107;-70
2023/04/15 03:11:50;;;;;;;6.72;3.63;;;;;;;7.28;69.38;97318.31;5073256;28;20038;-71
2023/04/15 03:14:18;;;;;;;6.10;3.63;;;;;;;7.21;69.26;97317.91;5067516;28;20040;-71
2023/04/15 03:16:43;;;;;;;5.35;3.25;;;;;;;7.18;69.36;97317.69;5061879;28;20020;-71
2023/04/15 03:19:09;;;;;;;4.97;3.30;;;;;;;7.15;69.06;97316.38;5053606;28;20091;-71
2023/04/15 03:21:34;;;;;;;5.72;3.38;;;;;;;7.11;69.26;97309.91;5062055;28;20033;-71
2023/04/15 03:24:00;;;;;;;5.43;3.60;;;;;;;7.07;69.27;97315.16;5059433;28;20081;-71
2023/04/15 03:26:29;;;;;;;4.97;3.42;;;;;;;7.03;69.58;97319.59;5060746;28;20039;-72
2023/04/15 03:28:55;;;;;;;5.32;3.38;;;;;;;6.99;69.37;97329.50;5073632;28;20029;-72
2023/04/15 03:31:20;;;;;;;5.65;3.60;;;;;;;6.98;69.62;97334.13;5071339;28;20028;-71
2023/04/15 03:33:46;;;;;;;6.43;4.10;;;;;;;6.96;69.60;97339.06;5054497;28;20025;-71
2023/04/15 03:36:11;;;;;;;7.65;4.50;;;;;;;6.94;69.48;97333.09;5072716;28;20038;-71
2023/04/15 03:38:36;;;;;;;7.95;4.72;;;;;;;6.91;69.79;97338.34;5065482;28;20036;-72
2023/04/15 03:41:02;;;;;;;10.43;6.57;;;;;;;6.91;69.52;97338.34;5072790;28;20445;-71
2023/04/15 03:43:27;;;;;;;12.80;9.80;;;;;;;6.87;69.58;97337.34;5069871;28;20048;-72
2023/04/15 03:45:53;;;;;;;14.68;11.93;;;;;;;6.80;69.27;97340.44;5061599;28;20115;-71
2023/04/15 03:48:18;;;;;;;11.13;9.10;;;;;;;6.75;69.58;97337.81;5066415;28;20399;-71
2023/04/15 03:50:44;;;;;;;10.05;8.32;;;;;;;6.69;69.52;97332.44;5067575;28;20039;-71
2023/04/15 03:53:09;;;;;;;7.75;4.97;;;;;;;6.64;69.53;97329.81;5072716;28;20131;-72
2023/04/15 03:55:35;;;;;;;5.88;4.68;;;;;;;6.63;69.77;97339.09;5053588;28;20040;-71
2023/04/15 03:58:00;;;;;;;5.78;3.92;;;;;;;6.62;69.68;97339.41;5072473;28;20035;-71
2023/04/15 04:00:25;;;;;;;5.97;3.95;;;;;;;6.60;69.92;97338.88;5060743;28;20465;-72
2023/04/15 04:02:51;;;;;;;6.68;4.10;;;;;;;6.58;69.57;97336.44;5065683;28;20033;-71
2023/04/15 04:05:16;;;;;;;5.88;4.13;;;;;;;6.53;69.67;97341.97;5053815;28;20140;-70
2023/04/15 04:07:42;;;;;;;8.65;6.18;;;;;;;6.48;69.64;97348.31;5056483;28;20025;-71
2023/04/15 04:10:07;;;;;;;7.93;5.45;;;;;;;6.44;69.67;97350.00;5058586;28;20025;-71
2023/04/15 04:12:33;;;;;;;8.30;6.25;;;;;;;6.40;69.67;97344.38;5068930;28;20109;-71
2023/04/15 04:14:58;;;;;;;8.45;7.05;;;;;;;6.38;69.97;97343.03;5052848;28;20385;-71
2023/04/15 04:17:24;;;;;;;9.82;7.95;;;;;;;6.36;69.76;97339.78;5054021;28;20032;-71
2023/04/15 04:19:49;;;;;;;8.07;6.30;;;;;;;6.37;70.44;97349.56;5052651;28;20025;-71
2023/04/15 04:22:15;;;;;;;8.38;5.78;;;;;;;6.36;69.71;97351.50;5069145;28;20041;-71
2023/04/15 04:24:40;;;;;;;8.32;5.82;;;;;;;6.39;70.05;97352.81;5072724;28;20082;-71
2023/04/15 04:27:05;;;;;;;8.23;5.78;;;;;;;6.42;70.20;97357.66;5060903;28;20056;-70
2023/04/15 04:29:31;;;;;;;7.65;5.72;;;;;;;6.45;69.98;97367.19;5054376;28;20047;-71
2023/04/15 04:31:56;;;;;;;8.20;6.32;;;;;;;6.46;70.17;97360.63;5071562;28;20035;-71
2023/04/15 04:34:22;;;;;;;7.72;5.70;;;;;;;6.46;70.17;97369.59;5072829;28;20381;-71
2023/04/15 04:36:47;;;;;;;7.22;5.43;;;;;;;6.47;70.20;97370.41;5060168;28;20079;-71
2023/04/15 04:39:12;;;;;;;7.82;5.68;;;;;;;6.45;70.27;97367.19;5058346;28;20550;-71
2023/04/15 04:41:38;;;;;;;7.78;6.68;;;;;;;6.46;69.95;97372.31;5070427;28;20544;-71
2023/04/15 04:44:03;;;;;;;7.85;6.20;;;;;;;6.45;70.29;97378.88;5066777;28;20056;-72
2023/04/15 04:46:29;;;;;;;11.60;8.18;;;;;;;6.45;70.75;97381.59;5064674;28;20035;-71
2023/04/15 04:48:54;;;;;;;15.60;9.95;;;;;;;6.40;70.39;97392.56;5072922;28;20012;-72
2023/04/15 04:51:20;;;;;;;23.15;14.15;;;;;;;6.40;70.35;97398.00;5064229;28;20481;-71
2023/04/15 04:53:45;;;;;;;20.58;12.57;;;;;;;6.41;70.40;97394.19;5066243;28;20075;-71
2023/04/15 04:56:10;;;;;;;21.98;13.35;;;;;;;6.42;70.60;97400.44;5071073;28;20135;-71
2023/04/15 04:58:37;;;;;;;21.40;13.88;;;;;;;6.42;70.32;97395.00;5059470;28;20036;-71
2023/04/15 05:01:02;;;;;;;22.50;13.95;;;;;;;6.43;70.31;97400.16;5066640;28;20142;-71
2023/04/15 05:03:28;;;;;;;21.77;13.52;;;;;;;6.44;70.38;97393.59;5062447;28;20150;-71
2023/04/15 05:05:53;;;;;;;25.92;16.90;;;;;;;6.48;70.42;97394.63;5069419;28;20107;-71
2023/04/15 05:08:19;;;;;;;25.08;17.55;;;;;;;6.53;70.33;97397.28;5067244;28;20391;-71
2023/04/15 05:10:44;;;;;;;27.77;17.95;;;;;;;6.61;70.39;97390.34;5054319;28;20040;-72
2023/04/15 05:13:10;;;;;;;29.95;19.35;;;;;;;6.67;70.88;97391.88;5053286;28;20059;-72
2023/04/15 05:15:38;;;;;;;23.25;16.67;;;;;;;6.74;70.17;97391.50;5071387;28;20464;-72
2023/04/15 05:18:04;;;;;;;24.67;15.98;;;;;;;6.79;71.21;97391.41;5067745;28;20108;-71
2023/04/15 05:20:29;;;;;;;31.52;16.33;;;;;;;6.85;70.91;97392.16;5051613;28;20453;-72
2023/04/15 05:22:54;;;;;;;28.67;15.20;;;;;;;6.91;70.95;97401.03;5054634;28;20163;-72
2023/04/15 05:25:20;;;;;;;44.42;21.92;;;;;;;7.00;70.52;97396.53;5052247;28;20472;-72
2023/04/15 05:27:45;;;;;;;47.70;21.10;;;;;;;7.07;70.89;97398.88;5070413;28;20029;-72
2023/04/15 05:30:11;;;;;;;34.80;18.38;;;;;;;7.14;71.01;97397.34;5055902;28;20024;-72
2023/04/15 05:32:36;;;;;;;26.38;15.38;;;;;;;7.25;71.39;97399.91;5053638;28;20036;-72
2023/04/15 05:35:02;;;;;;;24.17;13.10;;;;;;;7.30;71.02;97403.38;5050657;28;20090;-76
2023/04/15 05:37:27;;;;;;;28.63;16.63;;;;;;;7.37;71.05;97404.88;5069923;28;20553;-73
2023/04/15 05:39:52;;;;;;;32.60;19.58;;;;;;;7.38;71.12;97409.22;5049688;28;20535;-73
2023/04/15 05:42:18;;;;;;;26.13;16.73;;;;;;;7.42;70.81;97411.06;5064909;28;20377;-73
2023/04/15 05:44:43;;;;;;;23.30;15.00;;;;;;;7.48;70.89;97410.97;5064780;28;20049;-73
2023/04/15 05:47:09;;;;;;;49.67;29.20;;;;;;;7.51;71.30;97411.16;5060482;28;20032;-73
2023/04/15 05:49:35;;;;;;;50.67;28.02;;;;;;;7.49;70.97;97409.84;5070172;28;20127;-73
2023/04/15 05:52:01;;;;;;;19.33;11.55;;;;;;;7.53;71.19;97408.16;5056926;28;20115;-73
2023/04/15 05:54:26;;;;;;;17.25;9.73;;;;;;;7.61;70.96;97407.41;5049956;28;20031;-73
2023/04/15 05:56:52;;;;;;;15.40;8.85;;;;;;;7.67;70.73;97410.88;5065509;28;20098;-73
2023/04/15 05:59:18;;;;;;;12.48;8.55;;;;;;;7.66;71.01;97412.00;5050583;28;20476;-73
2023/04/15 06:01:44;;;;;;;13.05;8.75;;;;;;;7.69;70.65;97416.84;5069252;28;20043;-73
2023/04/15 06:04:10;;;;;;;16.45;9.68;;;;;;;7.73;71.06;97415.91;5069506;28;20035;-73
2023/04/15 06:06:36;;;;;;;12.93;9.07;;;;;;;7.80;70.90;97422.91;5056525;28;20032;-73
2023/04/15 06:09:01;;;;;;;13.75;8.40;;;;;;;7.86;71.02;97425.22;5057952;28;20017;-73
2023/04/15 06:11:27;;;;;;;11.45;7.72;;;;;;;7.94;71.14;97423.72;5062968;28;20029;-73
2023/04/15 06:13:52;;;;;;;12.35;7.97;;;;;;;8.03;71.25;97435.53;5069124;28;20427;-73
2023/04/15 06:16:17;;;;;;;10.30;7.20;;;;;;;8.10;70.57;97437.03;5063465;28;20461;-72
2023/04/15 06:18:43;;;;;;;11.65;7.68;;;;;;;8.18;71.52;97439.84;5064821;28;20025;-73
2023/04/15 06:21:09;;;;;;;12.57;7.47;;;;;;;8.28;71.10;97446.22;5058220;28;20138;-71
2023/04/15 06:23:35;;;;;;;10.88;6.97;;;;;;;8.39;70.62;97446.78;5072573;28;20035;-72
2023/04/15 06:26:01;;;;;;;9.32;6.10;;;;;;;8.50;71.10;97445.50;5062525;28;20024;-73
2023/04/15 06:28:26;;;;;;;8.35;5.90;;;;;;;8.58;70.96;97447.50;5067525;28;20035;-73
2023/04/15 06:30:52;;;;;;;9.18;5.75;;;;;;;8.68;70.85;97448.38;5065021;28;20028;-71
2023/04/15 06:33:17;;;;;;;7.88;5.13;;;;;;;8.78;70.50;97448.13;5068153;28;20032;-72
2023/04/15 06:35:43;;;;;;;9.13;5.20;;;;;;;8.87;70.81;97443.56;5057469;28;20039;-71
2023/04/15 06:38:08;;;;;;;7.93;5.05;;;;;;;8.94;71.00;97446.66;5057665;28;20025;-71
2023/04/15 06:40:34;;;;;;;7.28;4.65;;;;;;;9.02;70.17;97450.56;5073670;28;20039;-71
2023/04/15 06:42:59;;;;;;;6.68;4.35;;;;;;;9.07;69.98;97453.19;5037525;28;20029;-71
2023/04/15 06:45:25;;;;;;;7.43;4.85;;;;;;;9.12;70.30;97440.50;5066029;28;20089;-71
2023/04/15 06:47:50;;;;;;;7.57;4.55;;;;;;;9.18;69.71;97437.31;5067820;28;20532;-71
2023/04/15 06:50:16;;;;;;;5.40;3.90;;;;;;;9.22;69.68;97432.06;5060121;28;20033;-71
2023/04/15 06:52:41;;;;;;;7.22;4.18;;;;;;;9.23;69.89;97442.66;5057347;28;20056;-71
2023/04/15 06:55:09;;;;;;;6.43;3.97;;;;;;;9.26;69.72;97444.00;5073963;28;20374;-71
2023/04/15 06:57:34;;;;;;;5.93;3.50;;;;;;;9.30;69.47;97446.88;5077252;28;20090;-71
2023/04/15 07:00:00;;;;;;;6.43;4.38;;;;;;;9.31;69.89;97446.59;5059577;28;20492;-71
2023/04/15 07:02:26;;;;;;;5.78;3.65;;;;;;;9.37;68.79;97441.78;5077102;28;20028;-71
2023/04/15 07:04:51;;;;;;;6.40;4.07;;;;;;;9.37;69.40;97439.84;5076887;28;20017;-72
2023/04/15 07:07:16;;;;;;;7.25;4.45;;;;;;;9.43;68.79;97439.72;5069065;28;20043;-70
2023/04/15 07:09:43;;;;;;;7.75;3.90;;;;;;;9.50;68.17;97437.34;5056520;28;20078;-72
2023/04/15 07:12:08;;;;;;;6.93;4.00;;;;;;;9.56;68.36;97444.31;5060020;28;20112;-72
2023/04/15 07:14:34;;;;;;;6.07;3.40;;;;;;;9.59;68.71;97440.13;5068642;28;20131;-72
2023/04/15 07:16:59;;;;;;;6.82;3.50;;;;;;;9.64;68.62;97445.47;5075010;28;20032;-71
2023/04/15 07:19:25;;;;;;;5.95;3.40;;;;;;;9.67;67.79;97451.13;5073322;28;20035;-71
2023/04/15 07:21:50;;;;;;;5.93;3.45;;;;;;;9.72;67.87;97450.16;5061761;28;20091;-71
2023/04/15 07:24:17;;;;;;;6.20;3.55;;;;;;;9.78;68.61;97453.59;5063248;28;20029;-71
2023/04/15 07:26:44;;;;;;;6.70;3.53;;;;;;;9.85;67.67;97458.59;5060107;28;20048;-71
2023/04/15 07:29:09;;;;;;;5.65;3.22;;;;;;;9.93;67.68;97452.38;5073096;28;20090;-72
2023/04/15 07:31:35;;;;;;;4.72;2.97;;;;;;;9.98;67.50;97450.28;5054975;28;20060;-72
2023/04/15 07:34:02;;;;;;;5.43;3.50;;;;;;;10.05;67.25;97460.75;5073642;28;20024;-72
2023/04/15 07:36:28;;;;;;;6.07;3.45;;;;;;;10.16;67.73;97453.09;5054913;28;20469;-71
2023/04/15 07:38:54;;;;;;;5.80;3.75;;;;;;;10.22;67.19;97454.53;5055990;28;20086;-72
2023/04/15 07:41:20;;;;;;;6.65;3.42;;;;;;;10.27;66.80;97448.91;5070443;28;20123;-71
2023/04/15 07:43:47;;;;;;;5.18;3.10;;;;;;;10.32;66.45;97449.88;5074576;28;20091;-71
2023/04/15 07:46:12;;;;;;;5.55;3.60;;;;;;;10.39;66.07;97448.31;5055296;28;20033;-72
2023/04/15 07:48:37;;;;;;;5.40;3.28;;;;;;;10.50;66.70;97446.09;5055043;28;20044;-72
2023/04/15 07:51:03;;;;;;;5.95;3.55;;;;;;;10.63;66.65;97440.75;5063564;28;20028;-71
2023/04/15 07:53:29;;;;;;;8.10;4.13;;;;;;;10.75;66.36;97449.16;5071973;28;20107;-72
2023/04/15 07:55:54;;;;;;;5.72;3.30;;;;;;;10.91;66.54;97449.47;5069081;28;20024;-72
2023/04/15 07:58:20;;;;;;;4.03;2.60;;;;;;;11.04;66.48;97449.63;5067812;28;20021;-72
2023/04/15 08:00:45;;;;;;;3.83;2.47;;;;;;;11.15;65.15;97448.97;5068988;28;20029;-72
2023/04/15 08:03:11;;;;;;;7.57;3.50;;;;;;;11.27;65.45;97445.56;5068831;28;20070;-72
2023/04/15 08:05:36;;;;;;;6.43;3.63;;;;;;;11.38;65.20;97457.03;5054610;28;20029;-70
2023/04/15 08:08:01;;;;;;;5.20;2.75;;;;;;;11.43;64.46;97453.28;5063340;28;20028;-71
2023/04/15 08:10:28;;;;;;;4.88;2.40;;;;;;;11.47;63.63;97449.56;5068276;28;20115;-72
2023/04/15 08:12:54;;;;;;;4.10;2.20;;;;;;;11.52;63.55;97448.59;5061914;28;20029;-71
2023/04/15 08:15:20;;;;;;;4.10;2.30;;;;;;;11.63;62.51;97457.28;5062272;28;20521;-71
2023/04/15 08:17:45;;;;;;;2.17;1.10;;;;;;;11.72;61.27;97454.50;5068457;28;20020;-71
2023/04/15 08:20:12;;;;;;;1.83;0.80;;;;;;;11.90;59.94;97457.97;5067504;28;20032;-72
2023/04/15 08:22:38;;;;;;;2.35;1.05;;;;;;;12.08;58.01;97464.22;5066430;28;20108;-72
2023/04/15 08:25:04;;;;;;;2.50;1.60;;;;;;;12.17;57.65;97462.25;5066111;28;20058;-73
2023/04/15 08:27:29;;;;;;;2.15;1.40;;;;;;;12.28;57.08;97470.13;5054617;28;20052;-73
2023/04/15 08:29:55;;;;;;;1.75;1.25;;;;;;;12.30;57.86;97457.66;5050530;28;20029;-71
2023/04/15 08:32:21;;;;;;;3.53;1.85;;;;;;;12.41;57.96;97458.09;5061256;28;20070;-72
2023/04/15 08:34:47;;;;;;;3.92;1.30;;;;;;;12.57;58.13;97472.06;5052869;28;20026;-72
2023/04/15 08:37:13;;;;;;;1.20;0.82;;;;;;;12.73;57.12;97457.69;5060048;28;20021;-71
2023/04/15 08:39:47;;;;;;;1.00;0.80;;;;;;;12.91;55.46;97456.44;5056721;28;20025;-71
2023/04/15 08:42:18;;;;;;;3.00;1.83;;;;;;;13.04;56.14;97460.03;5050696;28;20109;-72
2023/04/15 08:44:45;;;;;;;2.47;1.25;;;;;;;13.20;56.00;97456.69;5080963;28;20236;-71
2023/04/15 08:47:13;;;;;;;2.72;1.48;;;;;;;13.31;55.73;97457.06;5091157;28;20047;-71
2023/04/15 08:49:42;;;;;;;1.77;1.10;;;;;;;13.44;55.70;97449.66;5091691;28;20054;-71
2023/04/15 08:52:08;;;;;;;1.23;1.05;;;;;;;13.51;55.08;97456.22;5090317;28;20104;-71
2023/04/15 08:54:43;;;;;;;2.17;1.33;;;;;;;13.55;53.85;97456.34;5087937;28;20027;-72
2023/04/15 08:57:11;;;;;;;2.15;1.38;;;;;;;13.60;54.81;97458.06;5088154;28;20199;-72
2023/04/15 08:59:37;;;;;;;1.98;1.40;;;;;;;13.66;55.11;97453.97;5055794;28;20027;-73
2023/04/15 09:02:03;;;;;;;1.70;1.10;;;;;;;13.78;53.35;97465.00;5089253;28;20035;-73
2023/04/15 09:04:29;;;;;;;1.70;1.60;;;;;;;13.84;54.35;97466.41;5089443;28;20036;-73
2023/04/15 09:06:54;;;;;;;3.92;2.30;;;;;;;13.90;52.87;97460.66;5086993;28;20464;-72
2023/04/15 09:09:19;;;;;;;2.97;2.40;;;;;;;13.98;54.00;97470.75;5069295;28;20031;-72
2023/04/15 09:11:45;;;;;;;4.57;3.42;;;;;;;14.02;53.88;97470.91;5087279;28;20032;-73
2023/04/15 09:14:11;;;;;;;4.63;2.95;;;;;;;14.01;54.13;97458.25;5088422;28;20073;-73
2023/04/15 09:16:55;;;;;;;14.20;11.63;;;;;;;14.13;53.43;97463.75;5087509;28;20110;-73
2023/04/15 09:19:23;;;;;;;5.78;2.88;;;;;;;14.31;53.23;97456.06;5086583;28;20036;-74
2023/04/15 09:21:50;;;;;;;4.38;1.60;;;;;;;14.44;51.30;97456.88;5088441;28;20546;-74
2023/04/15 09:24:15;;;;;;;1.83;1.10;;;;;;;14.51;52.58;97461.81;5088580;28;20028;-73
2023/04/15 09:26:41;;;;;;;1.88;1.20;;;;;;;14.55;51.52;97457.19;5060556;28;20038;-74
2023/04/15 09:29:14;;;;;;;1.55;1.20;;;;;;;14.57;51.28;97452.16;5059378;28;20638;-73
2023/04/15 09:31:40;;;;;;;3.75;3.15;;;;;;;14.52;51.14;97455.13;5057848;28;20134;-75
2023/04/15 09:34:06;;;;;;;3.28;2.08;;;;;;;14.44;52.14;97457.66;5061437;28;20850;-74
2023/04/15 09:36:53;;;;;;;3.25;1.13;;;;;;;14.39;52.44;97457.13;5061095;28;20112;-74
2023/04/15 09:39:19;;;;;;;2.58;1.35;;;;;;;14.41;50.30;97455.59;5059666;28;20025;-74
2023/04/15 09:41:44;;;;;;;2.95;2.40;;;;;;;14.52;49.81;97455.94;5060740;28;20663;-75
2023/04/15 09:44:25;;;;;;;2.35;1.92;;;;;;;14.62;50.38;97453.84;5054042;28;20132;-75
2023/04/15 09:46:51;;;;;;;1.65;1.42;;;;;;;14.79;50.33;97448.09;5040031;28;20111;-73
2023/04/15 09:49:16;;;;;;;1.45;1.35;;;;;;;14.94;50.50;97454.03;5036830;28;20264;-73
2023/04/15 09:51:43;;;;;;;2.15;1.58;;;;;;;14.91;48.90;97457.47;5015915;28;20988;-71
2023/04/15 09:54:08;;;;;;;3.50;1.70;;;;;;;14.91;49.77;97458.31;5035094;28;20083;-73
2023/04/15 09:56:40;;;;;;;2.63;1.92;;;;;;;15.01;49.99;97445.94;5040067;28;20039;-73
2023/04/15 09:59:07;;;;;;;3.03;1.80;;;;;;;15.03;49.80;97462.97;5038883;28;20043;-74
2023/04/15 10:01:33;;;;;;;3.22;1.88;;;;;;;15.04;49.41;97461.81;5042573;28;20036;-73
2023/04/15 10:04:04;;;;;;;5.93;2.65;;;;;;;15.05;50.52;97463.44;5039306;28;20033;-73
2023/04/15 10:06:30;;;;;;;2.28;1.70;;;;;;;15.16;48.44;97466.50;5043522;28;20374;-74
2023/04/15 10:08:59;;;;;;;2.50;1.35;;;;;;;15.28;49.17;97454.63;5038089;28;20025;-75
2023/04/15 10:11:29;;;;;;;2.67;2.13;;;;;;;15.40;48.53;97454.53;5035856;28;20029;-75
2023/04/15 10:13:55;;;;;;;;;;;;;;;15.43;49.64;97464.88;5030390;28;20260;-75
2023/04/15 10:16:21;;;;;;;2.13;1.63;;;;;;;15.45;49.49;97459.81;5034931;28;19921;-74
2023/04/15 10:18:55;;;;;;;2.95;1.63;;;;;;;15.47;49.26;97449.22;5039154;28;20583;-75
2023/04/15 10:21:22;;;;;;;3.30;2.40;;;;;;;15.56;49.27;97457.31;5039803;28;20207;-74
2023/04/15 10:23:48;;;;;;;3.15;1.83;;;;;;;15.61;48.28;97453.50;5038395;28;20559;-74
2023/04/15 10:26:15;;;;;;;3.05;1.90;;;;;;;15.61;48.53;97453.50;5038007;28;20021;-74
2023/04/15 10:28:40;;;;;;;3.47;2.17;;;;;;;15.55;48.59;97460.44;5023551;28;20389;-74
2023/04/15 10:31:10;;;;;;;2.70;1.70;;;;;;;15.52;48.53;97444.59;5035658;28;20519;-72
2023/04/15 10:33:37;;;;;;;2.55;1.73;;;;;;;15.54;48.10;97451.34;5029039;28;20719;-73
2023/04/15 10:36:03;;;;;;;2.47;1.50;;;;;;;15.67;48.28;97443.00;5033771;28;20056;-73
2023/04/15 10:38:43;;;;;;;1.40;1.30;;;;;;;15.73;49.24;97450.66;5037911;28;20033;-71
2023/04/15 10:41:22;;;;;;;2.58;1.73;;;;;;;15.71;47.54;97452.97;5040512;28;20036;-72
2023/04/15 10:44:14;;;;;;;2.97;1.88;;;;;;;15.68;47.43;97456.47;5045705;28;20060;-72
2023/04/15 10:46:42;;;;;;;1.85;1.58;;;;;;;15.59;46.74;97448.31;5059681;28;20037;-73
2023/04/15 10:49:12;;;;;;;3.55;1.70;;;;;;;15.53;46.63;97454.47;5060921;28;20036;-72
2023/04/15 10:51:43;;;;;;;2.60;1.67;;;;;;;15.47;46.08;97453.94;5062681;28;20031;-73
2023/04/15 10:54:14;;;;;;;2.72;1.70;;;;;;;15.43;46.69;97453.03;5056938;28;20131;-73
2023/04/15 10:56:50;;;;;;;6.63;2.72;;;;;;;15.40;46.96;97457.28;5058571;28;20025;-72
2023/04/15 10:59:15;;;;;;;2.55;1.60;;;;;;;15.42;47.14;97443.16;5045906;28;20029;-72
2023/04/15 11:01:55;;;;;;;3.35;1.90;;;;;;;15.46;47.51;97455.09;5066437;28;20032;-72
2023/04/15 11:04:51;;;;;;;3.33;2.20;;;;;;;15.46;46.44;97457.88;5065518;28;20063;-72
2023/04/15 11:07:37;;;;;;;2.90;1.92;;;;;;;15.43;46.81;97464.09;5065419;28;20043;-70
2023/04/15 11:10:12;;;;;;;2.72;1.98;;;;;;;15.47;46.06;97463.03;5047744;28;20085;-72
2023/04/15 11:12:38;;;;;;;3.63;1.77;;;;;;;15.46;45.53;97460.63;5068763;28;20032;-74
2023/04/15 11:15:30;;;;;;;4.82;3.30;;;;;;;15.42;45.68;97463.28;5040196;28;20027;-74
2023/04/15 11:18:10;;;;;;;3.75;2.92;;;;;;;15.43;46.09;97467.66;5057757;28;20525;-75
2023/04/15 11:20:37;;;;;;;4.53;3.20;;;;;;;15.41;45.27;97475.47;5063256;28;20033;-75
2023/04/15 11:23:05;;;;;;;7.82;4.43;;;;;;;15.37;44.85;97465.50;5069069;28;20090;-74
2023/04/15 11:25:36;;;;;;;3.58;2.78;;;;;;;15.30;45.10;97474.38;5068133;28;20571;-74
2023/04/15 11:28:02;;;;;;;8.57;5.75;;;;;;;15.25;46.00;97471.88;5067310;28;20036;-75
2023/04/15 11:30:31;;;;;;;47.03;29.63;;;;;;;15.22;46.31;97475.34;5066565;28;20071;-74
2023/04/15 11:33:07;;;;;;;6.50;4.93;;;;;;;15.21;46.67;97479.25;5068710;28;20031;-75